sensor_id;sensor_type;location;lat;lon;timestamp;temperature;humidity
15690;DHT22;7945;48.816;11.506;2022-09-09T00:00:48;16.60;99.90
15690;DHT22;7945;48.816;11.506;2022-09-09T00:03:19;16.60;99.90
15690;DHT22;7945;48.816;11.506;2022-09-09T00:05:55;16.50;99.90
15690;DHT22;7945;48.816;11.506;2022-09-09T00:08:32;16.50;99.90
15690;DHT22;7945;48.816;11.506;2022-09-09T00:11:03;16.60;99.90
15690;DHT22;7945;48.816;11.506;2022-09-09T00:13:37;16.50;99.90
15690;DHT22;7945;48.816;11.506;2022-09-09T00:16:08;16.40;99.90
15690;DHT22;7945;48.816;11.506;2022-09-09T00:18:45;16.40;99.90
15690;DHT22;7945;48.816;11.506;2022-09-09T00:21:15;16.40;99.90
15690;DHT22;7945;48.816;11.506;2022-09-09T00:23:46;16.40;99.90
15690;DHT22;7945;48.816;11.506;2022-09-09T00:26:20;16.30;99.90
15690;DHT22;7945;48.816;11.506;2022-09-09T00:28:55;16.30;99.90
15690;DHT22;7945;48.816;11.506;2022-09-09T00:31:27;16.30;99.90
15690;DHT22;7945;48.816;11.506;2022-09-09T00:33:57;16.30;99.90
15690;DHT22;7945;48.816;11.506;2022-09-09T00:36:27;16.30;99.90
15690;DHT22;7945;48.816;11.506;2022-09-09T00:38:57;16.30;99.90
15690;DHT22;7945;48.816;11.506;2022-09-09T00:41:35;16.30;99.90
15690;DHT22;7945;48.816;11.506;2022-09-09T00:44:25;16.30;99.90
15690;DHT22;7945;48.816;11.506;2022-09-09T00:47:04;16.30;99.90
15690;DHT22;7945;48.816;11.506;2022-09-09T00:49:44;16.30;99.90
15690;DHT22;7945;48.816;11.506;2022-09-09T00:52:23;16.20;99.90
15690;DHT22;7945;48.816;11.506;2022-09-09T00:55:00;16.20;99.90
15690;DHT22;7945;48.816;11.506;2022-09-09T00:57:30;16.10;99.90
15690;DHT22;7945;48.816;11.506;2022-09-09T01:00:17;16.10;99.90
15690;DHT22;7945;48.816;11.506;2022-09-09T01:02:58;16.00;99.90
15690;DHT22;7945;48.816;11.506;2022-09-09T01:05:33;16.00;99.90
15690;DHT22;7945;48.816;11.506;2022-09-09T01:08:07;16.00;99.90
15690;DHT22;7945;48.816;11.506;2022-09-09T01:10:43;16.00;99.90
15690;DHT22;7945;48.816;11.506;2022-09-09T01:13:18;16.00;99.90
15690;DHT22;7945;48.816;11.506;2022-09-09T01:15:50;16.00;99.90
15690;DHT22;7945;48.816;11.506;2022-09-09T01:18:21;16.00;99.90
15690;DHT22;7945;48.816;11.506;2022-09-09T01:20:55;16.00;99.90
15690;DHT22;7945;48.816;11.506;2022-09-09T01:23:37;16.00;99.90
15690;DHT22;7945;48.816;11.506;2022-09-09T01:26:15;16.00;99.90
15690;DHT22;7945;48.816;11.506;2022-09-09T01:28:46;16.00;99.90
15690;DHT22;7945;48.816;11.506;2022-09-09T01:31:17;16.00;99.90
15690;DHT22;7945;48.816;11.506;2022-09-09T01:33:44;16.00;99.90
15690;DHT22;7945;48.816;11.506;2022-09-09T01:36:15;16.00;99.90
15690;DHT22;7945;48.816;11.506;2022-09-09T01:38:44;16.00;99.90
15690;DHT22;7945;48.816;11.506;2022-09-09T01:41:12;16.00;99.90
15690;DHT22;7945;48.816;11.506;2022-09-09T01:43:39;16.00;99.90
15690;DHT22;7945;48.816;11.506;2022-09-09T01:46:06;15.90;99.90
15690;DHT22;7945;48.816;11.506;2022-09-09T01:48:33;16.00;99.90
15690;DHT22;7945;48.816;11.506;2022-09-09T01:51:00;16.00;99.90
15690;DHT22;7945;48.816;11.506;2022-09-09T01:53:27;16.00;99.90
15690;DHT22;7945;48.816;11.506;2022-09-09T01:56:04;16.00;99.90
15690;DHT22;7945;48.816;11.506;2022-09-09T01:58:46;16.00;99.90
15690;DHT22;7945;48.816;11.506;2022-09-09T02:01:20;16.00;99.90
15690;DHT22;7945;48.816;11.506;2022-09-09T02:03:52;15.90;99.90
15690;DHT22;7945;48.816;11.506;2022-09-09T02:06:27;15.90;99.90
15690;DHT22;7945;48.816;11.506;2022-09-09T02:08:56;15.90;99.90
15690;DHT22;7945;48.816;11.506;2022-09-09T02:11:26;15.90;99.90
15690;DHT22;7945;48.816;11.506;2022-09-09T02:13:57;15.90;99.90
15690;DHT22;7945;48.816;11.506;2022-09-09T02:16:28;15.90;99.90
15690;DHT22;7945;48.816;11.506;2022-09-09T02:19:01;15.80;99.90
15690;DHT22;7945;48.816;11.506;2022-09-09T02:21:30;15.80;99.90
15690;DHT22;7945;48.816;11.506;2022-09-09T02:24:01;15.80;99.90
15690;DHT22;7945;48.816;11.506;2022-09-09T02:26:31;15.80;99.90
15690;DHT22;7945;48.816;11.506;2022-09-09T02:29:02;15.80;99.90
15690;DHT22;7945;48.816;11.506;2022-09-09T02:31:30;15.70;99.90
15690;DHT22;7945;48.816;11.506;2022-09-09T02:34:01;15.70;99.90
15690;DHT22;7945;48.816;11.506;2022-09-09T02:36:32;15.60;99.90
15690;DHT22;7945;48.816;11.506;2022-09-09T02:39:00;15.60;99.90
15690;DHT22;7945;48.816;11.506;2022-09-09T02:41:31;15.60;99.90
15690;DHT22;7945;48.816;11.506;2022-09-09T02:44:01;15.50;99.90
15690;DHT22;7945;48.816;11.506;2022-09-09T02:46:37;15.40;99.90
15690;DHT22;7945;48.816;11.506;2022-09-09T02:49:10;15.30;99.90
15690;DHT22;7945;48.816;11.506;2022-09-09T02:51:42;15.20;99.90
15690;DHT22;7945;48.816;11.506;2022-09-09T02:54:19;15.20;99.90
15690;DHT22;7945;48.816;11.506;2022-09-09T02:56:52;15.10;99.90
15690;DHT22;7945;48.816;11.506;2022-09-09T02:59:21;15.20;99.90
15690;DHT22;7945;48.816;11.506;2022-09-09T03:01:49;15.20;99.90
15690;DHT22;7945;48.816;11.506;2022-09-09T03:04:16;15.20;99.90
15690;DHT22;7945;48.816;11.506;2022-09-09T03:06:43;15.20;99.90
15690;DHT22;7945;48.816;11.506;2022-09-09T03:09:09;15.30;99.90
15690;DHT22;7945;48.816;11.506;2022-09-09T03:11:37;15.30;99.90
15690;DHT22;7945;48.816;11.506;2022-09-09T03:14:04;15.30;99.90
15690;DHT22;7945;48.816;11.506;2022-09-09T03:16:32;15.30;99.90
15690;DHT22;7945;48.816;11.506;2022-09-09T03:18:59;15.30;99.90
15690;DHT22;7945;48.816;11.506;2022-09-09T03:21:27;15.30;99.90
15690;DHT22;7945;48.816;11.506;2022-09-09T03:23:53;15.30;99.90
15690;DHT22;7945;48.816;11.506;2022-09-09T03:26:21;15.30;99.90
15690;DHT22;7945;48.816;11.506;2022-09-09T03:28:48;15.40;99.90
15690;DHT22;7945;48.816;11.506;2022-09-09T03:31:15;15.40;99.90
15690;DHT22;7945;48.816;11.506;2022-09-09T03:33:43;15.40;99.90
15690;DHT22;7945;48.816;11.506;2022-09-09T03:36:10;15.40;99.90
15690;DHT22;7945;48.816;11.506;2022-09-09T03:38:37;15.40;99.90
15690;DHT22;7945;48.816;11.506;2022-09-09T03:41:04;15.40;99.90
15690;DHT22;7945;48.816;11.506;2022-09-09T03:43:32;15.40;99.90
15690;DHT22;7945;48.816;11.506;2022-09-09T03:45:59;15.40;99.90
15690;DHT22;7945;48.816;11.506;2022-09-09T03:48:26;15.40;99.90
15690;DHT22;7945;48.816;11.506;2022-09-09T03:50:55;15.40;99.90
15690;DHT22;7945;48.816;11.506;2022-09-09T03:53:24;15.50;99.90
15690;DHT22;7945;48.816;11.506;2022-09-09T03:55:52;15.50;99.90
15690;DHT22;7945;48.816;11.506;2022-09-09T03:58:21;15.50;99.90
15690;DHT22;7945;48.816;11.506;2022-09-09T04:00:54;15.50;99.90
15690;DHT22;7945;48.816;11.506;2022-09-09T04:03:22;15.50;99.90
15690;DHT22;7945;48.816;11.506;2022-09-09T04:05:50;15.50;99.90
15690;DHT22;7945;48.816;11.506;2022-09-09T04:08:18;15.50;99.90
15690;DHT22;7945;48.816;11.506;2022-09-09T04:10:46;15.50;99.90
15690;DHT22;7945;48.816;11.506;2022-09-09T04:13:13;15.50;99.90
15690;DHT22;7945;48.816;11.506;2022-09-09T04:15:43;15.60;99.90
15690;DHT22;7945;48.816;11.506;2022-09-09T04:18:11;15.50;99.90
15690;DHT22;7945;48.816;11.506;2022-09-09T04:20:37;15.60;99.90
15690;DHT22;7945;48.816;11.506;2022-09-09T04:23:04;15.50;99.90
15690;DHT22;7945;48.816;11.506;2022-09-09T04:25:33;15.60;99.90
15690;DHT22;7945;48.816;11.506;2022-09-09T04:28:00;15.50;99.90
15690;DHT22;7945;48.816;11.506;2022-09-09T04:30:28;15.50;99.90
15690;DHT22;7945;48.816;11.506;2022-09-09T04:32:56;15.50;99.90
15690;DHT22;7945;48.816;11.506;2022-09-09T04:35:23;15.50;99.90
15690;DHT22;7945;48.816;11.506;2022-09-09T04:37:50;15.50;99.90
15690;DHT22;7945;48.816;11.506;2022-09-09T04:40:16;15.50;99.90
15690;DHT22;7945;48.816;11.506;2022-09-09T04:42:45;15.60;99.90
15690;DHT22;7945;48.816;11.506;2022-09-09T04:45:13;15.50;99.90
15690;DHT22;7945;48.816;11.506;2022-09-09T04:47:40;15.40;99.90
15690;DHT22;7945;48.816;11.506;2022-09-09T04:50:08;15.40;99.90
15690;DHT22;7945;48.816;11.506;2022-09-09T04:52:35;15.30;99.90
15690;DHT22;7945;48.816;11.506;2022-09-09T04:55:03;15.30;99.90
15690;DHT22;7945;48.816;11.506;2022-09-09T04:57:30;15.30;99.90
15690;DHT22;7945;48.816;11.506;2022-09-09T04:59:59;15.40;99.90
15690;DHT22;7945;48.816;11.506;2022-09-09T05:02:27;15.40;99.90
15690;DHT22;7945;48.816;11.506;2022-09-09T05:04:54;15.40;99.90
15690;DHT22;7945;48.816;11.506;2022-09-09T05:07:21;15.40;99.90
15690;DHT22;7945;48.816;11.506;2022-09-09T05:09:48;15.40;99.90
15690;DHT22;7945;48.816;11.506;2022-09-09T05:12:15;15.50;99.90
15690;DHT22;7945;48.816;11.506;2022-09-09T05:14:42;15.60;99.90
15690;DHT22;7945;48.816;11.506;2022-09-09T05:17:11;15.80;99.90
15690;DHT22;7945;48.816;11.506;2022-09-09T05:19:38;16.00;99.90
15690;DHT22;7945;48.816;11.506;2022-09-09T05:22:05;16.10;99.90
15690;DHT22;7945;48.816;11.506;2022-09-09T05:24:33;16.50;99.90
15690;DHT22;7945;48.816;11.506;2022-09-09T05:26:59;16.90;99.90
15690;DHT22;7945;48.816;11.506;2022-09-09T05:29:27;17.10;99.90
15690;DHT22;7945;48.816;11.506;2022-09-09T05:31:54;17.70;99.90
15690;DHT22;7945;48.816;11.506;2022-09-09T05:34:22;18.50;99.90
15690;DHT22;7945;48.816;11.506;2022-09-09T05:36:49;19.30;99.20
15690;DHT22;7945;48.816;11.506;2022-09-09T05:39:17;20.00;98.00
15690;DHT22;7945;48.816;11.506;2022-09-09T05:41:44;20.30;97.70
15690;DHT22;7945;48.816;11.506;2022-09-09T05:44:10;20.30;97.50
15690;DHT22;7945;48.816;11.506;2022-09-09T05:46:37;20.20;97.60
15690;DHT22;7945;48.816;11.506;2022-09-09T05:49:04;20.30;97.60
15690;DHT22;7945;48.816;11.506;2022-09-09T05:51:33;20.30;97.60
15690;DHT22;7945;48.816;11.506;2022-09-09T05:54:00;20.20;97.80
15690;DHT22;7945;48.816;11.506;2022-09-09T05:56:27;19.80;98.20
15690;DHT22;7945;48.816;11.506;2022-09-09T05:58:55;19.50;98.70
15690;DHT22;7945;48.816;11.506;2022-09-09T06:01:24;19.10;99.20
15690;DHT22;7945;48.816;11.506;2022-09-09T06:03:52;18.80;99.60
15690;DHT22;7945;48.816;11.506;2022-09-09T06:06:20;18.50;99.90
15690;DHT22;7945;48.816;11.506;2022-09-09T06:08:51;18.20;99.90
15690;DHT22;7945;48.816;11.506;2022-09-09T06:14:47;19.50;99.90
15690;DHT22;7945;48.816;11.506;2022-09-09T06:17:16;17.70;99.90
15690;DHT22;7945;48.816;11.506;2022-09-09T06:19:43;17.70;99.90
15690;DHT22;7945;48.816;11.506;2022-09-09T06:22:09;17.70;99.90
15690;DHT22;7945;48.816;11.506;2022-09-09T06:24:37;17.70;99.90
15690;DHT22;7945;48.816;11.506;2022-09-09T06:27:04;17.70;99.90
15690;DHT22;7945;48.816;11.506;2022-09-09T06:29:32;17.60;99.90
15690;DHT22;7945;48.816;11.506;2022-09-09T06:32:01;17.50;99.90
15690;DHT22;7945;48.816;11.506;2022-09-09T06:34:28;17.50;99.90
15690;DHT22;7945;48.816;11.506;2022-09-09T06:36:55;17.50;99.90
15690;DHT22;7945;48.816;11.506;2022-09-09T06:39:23;17.50;99.90
15690;DHT22;7945;48.816;11.506;2022-09-09T06:41:51;17.50;99.90
15690;DHT22;7945;48.816;11.506;2022-09-09T06:44:18;17.40;99.90
15690;DHT22;7945;48.816;11.506;2022-09-09T06:46:45;17.40;99.90
15690;DHT22;7945;48.816;11.506;2022-09-09T06:49:14;17.30;99.90
15690;DHT22;7945;48.816;11.506;2022-09-09T06:51:41;17.20;99.90
15690;DHT22;7945;48.816;11.506;2022-09-09T06:54:10;17.20;99.90
15690;DHT22;7945;48.816;11.506;2022-09-09T06:56:38;17.10;99.90
15690;DHT22;7945;48.816;11.506;2022-09-09T06:59:08;17.10;99.90
15690;DHT22;7945;48.816;11.506;2022-09-09T07:01:36;17.10;99.90
15690;DHT22;7945;48.816;11.506;2022-09-09T07:04:04;17.00;99.90
15690;DHT22;7945;48.816;11.506;2022-09-09T07:06:37;17.00;99.90
15690;DHT22;7945;48.816;11.506;2022-09-09T07:09:05;17.00;99.90
15690;DHT22;7945;48.816;11.506;2022-09-09T07:11:34;17.00;99.90
15690;DHT22;7945;48.816;11.506;2022-09-09T07:14:03;17.00;99.90
15690;DHT22;7945;48.816;11.506;2022-09-09T07:16:30;17.00;99.90
15690;DHT22;7945;48.816;11.506;2022-09-09T07:18:58;16.90;99.90
15690;DHT22;7945;48.816;11.506;2022-09-09T07:21:26;16.90;99.90
15690;DHT22;7945;48.816;11.506;2022-09-09T07:23:56;16.90;99.90
15690;DHT22;7945;48.816;11.506;2022-09-09T07:26:24;16.90;99.90
15690;DHT22;7945;48.816;11.506;2022-09-09T07:28:52;16.90;99.90
15690;DHT22;7945;48.816;11.506;2022-09-09T07:31:21;16.90;99.90
15690;DHT22;7945;48.816;11.506;2022-09-09T07:33:49;16.90;99.90
15690;DHT22;7945;48.816;11.506;2022-09-09T07:36:17;16.90;99.90
15690;DHT22;7945;48.816;11.506;2022-09-09T07:38:49;16.80;99.90
15690;DHT22;7945;48.816;11.506;2022-09-09T07:41:19;16.70;99.90
15690;DHT22;7945;48.816;11.506;2022-09-09T07:43:48;16.70;99.90
15690;DHT22;7945;48.816;11.506;2022-09-09T07:46:17;16.70;99.90
15690;DHT22;7945;48.816;11.506;2022-09-09T07:48:45;16.70;99.90
15690;DHT22;7945;48.816;11.506;2022-09-09T07:51:14;16.80;99.90
15690;DHT22;7945;48.816;11.506;2022-09-09T07:53:43;16.80;99.90
15690;DHT22;7945;48.816;11.506;2022-09-09T07:56:12;16.80;99.90
15690;DHT22;7945;48.816;11.506;2022-09-09T07:58:41;16.80;99.90
15690;DHT22;7945;48.816;11.506;2022-09-09T08:01:09;16.80;99.90
15690;DHT22;7945;48.816;11.506;2022-09-09T08:03:37;16.90;99.90
15690;DHT22;7945;48.816;11.506;2022-09-09T08:06:06;16.90;99.90
15690;DHT22;7945;48.816;11.506;2022-09-09T08:08:33;16.90;99.90
15690;DHT22;7945;48.816;11.506;2022-09-09T08:11:03;17.00;99.90
15690;DHT22;7945;48.816;11.506;2022-09-09T08:13:30;17.00;99.90
15690;DHT22;7945;48.816;11.506;2022-09-09T08:16:09;17.10;99.90
15690;DHT22;7945;48.816;11.506;2022-09-09T08:18:37;17.10;99.90
15690;DHT22;7945;48.816;11.506;2022-09-09T08:21:10;17.20;99.90
15690;DHT22;7945;48.816;11.506;2022-09-09T08:23:39;17.40;99.90
15690;DHT22;7945;48.816;11.506;2022-09-09T08:26:09;17.50;99.90
15690;DHT22;7945;48.816;11.506;2022-09-09T08:28:36;17.60;99.90
15690;DHT22;7945;48.816;11.506;2022-09-09T08:31:13;17.70;99.90
15690;DHT22;7945;48.816;11.506;2022-09-09T08:33:40;17.90;99.90
15690;DHT22;7945;48.816;11.506;2022-09-09T08:36:10;18.00;99.90
15690;DHT22;7945;48.816;11.506;2022-09-09T08:38:38;18.20;99.90
15690;DHT22;7945;48.816;11.506;2022-09-09T08:44:07;18.30;99.90
15690;DHT22;7945;48.816;11.506;2022-09-09T08:46:45;18.50;99.90
15690;DHT22;7945;48.816;11.506;2022-09-09T08:49:23;18.60;99.90
15690;DHT22;7945;48.816;11.506;2022-09-09T08:51:54;18.80;99.90
15690;DHT22;7945;48.816;11.506;2022-09-09T08:54:23;18.90;99.90
15690;DHT22;7945;48.816;11.506;2022-09-09T08:56:50;18.90;99.90
15690;DHT22;7945;48.816;11.506;2022-09-09T08:59:17;19.00;99.90
15690;DHT22;7945;48.816;11.506;2022-09-09T09:01:57;19.00;99.90
15690;DHT22;7945;48.816;11.506;2022-09-09T09:04:39;19.10;99.90
15690;DHT22;7945;48.816;11.506;2022-09-09T09:07:18;19.10;99.90
15690;DHT22;7945;48.816;11.506;2022-09-09T09:09:57;19.20;99.90
15690;DHT22;7945;48.816;11.506;2022-09-09T09:12:29;19.20;99.90
15690;DHT22;7945;48.816;11.506;2022-09-09T09:14:56;19.30;99.90
15690;DHT22;7945;48.816;11.506;2022-09-09T09:17:28;19.30;99.90
15690;DHT22;7945;48.816;11.506;2022-09-09T09:19:58;19.30;99.90
15690;DHT22;7945;48.816;11.506;2022-09-09T09:22:41;19.40;99.90
15690;DHT22;7945;48.816;11.506;2022-09-09T09:25:16;19.40;99.90
15690;DHT22;7945;48.816;11.506;2022-09-09T09:27:49;19.40;99.90
15690;DHT22;7945;48.816;11.506;2022-09-09T09:30:20;19.40;99.90
15690;DHT22;7945;48.816;11.506;2022-09-09T09:32:53;19.50;99.90
15690;DHT22;7945;48.816;11.506;2022-09-09T09:35:21;19.40;99.90
15690;DHT22;7945;48.816;11.506;2022-09-09T09:37:49;19.50;99.90
15690;DHT22;7945;48.816;11.506;2022-09-09T09:40:18;19.70;99.90
15690;DHT22;7945;48.816;11.506;2022-09-09T09:42:51;19.90;99.90
15690;DHT22;7945;48.816;11.506;2022-09-09T09:45:26;20.20;99.90
15690;DHT22;7945;48.816;11.506;2022-09-09T09:48:03;20.40;99.90
15690;DHT22;7945;48.816;11.506;2022-09-09T09:50:32;20.70;99.90
15690;DHT22;7945;48.816;11.506;2022-09-09T09:53:02;20.90;99.90
15690;DHT22;7945;48.816;11.506;2022-09-09T09:55:31;21.10;99.90
15690;DHT22;7945;48.816;11.506;2022-09-09T09:58:03;21.30;99.10
15690;DHT22;7945;48.816;11.506;2022-09-09T10:00:31;21.40;99.00
15690;DHT22;7945;48.816;11.506;2022-09-09T10:03:02;21.40;98.90
15690;DHT22;7945;48.816;11.506;2022-09-09T10:05:45;21.50;99.60
15690;DHT22;7945;48.816;11.506;2022-09-09T10:08:14;21.60;99.10
15690;DHT22;7945;48.816;11.506;2022-09-09T10:10:56;21.80;98.30
15690;DHT22;7945;48.816;11.506;2022-09-09T10:13:29;21.90;98.40
15690;DHT22;7945;48.816;11.506;2022-09-09T10:16:06;22.00;98.00
15690;DHT22;7945;48.816;11.506;2022-09-09T10:18:57;22.10;98.50
15690;DHT22;7945;48.816;11.506;2022-09-09T10:21:57;22.20;97.90
15690;DHT22;7945;48.816;11.506;2022-09-09T10:25:01;22.20;98.20
15690;DHT22;7945;48.816;11.506;2022-09-09T10:27:38;22.30;97.80
15690;DHT22;7945;48.816;11.506;2022-09-09T10:30:14;22.20;97.40
15690;DHT22;7945;48.816;11.506;2022-09-09T10:32:48;21.90;97.00
15690;DHT22;7945;48.816;11.506;2022-09-09T10:35:29;21.60;97.70
15690;DHT22;7945;48.816;11.506;2022-09-09T10:38:21;21.50;98.30
15690;DHT22;7945;48.816;11.506;2022-09-09T10:41:11;21.50;98.00
15690;DHT22;7945;48.816;11.506;2022-09-09T10:44:10;21.60;98.10
15690;DHT22;7945;48.816;11.506;2022-09-09T10:46:57;21.80;98.10
15690;DHT22;7945;48.816;11.506;2022-09-09T10:49:42;22.00;97.70
15690;DHT22;7945;48.816;11.506;2022-09-09T10:52:17;22.10;97.40
15690;DHT22;7945;48.816;11.506;2022-09-09T10:54:54;22.20;97.20
15690;DHT22;7945;48.816;11.506;2022-09-09T10:57:27;22.30;96.80
15690;DHT22;7945;48.816;11.506;2022-09-09T10:59:58;22.30;96.70
15690;DHT22;7945;48.816;11.506;2022-09-09T11:02:29;22.30;97.00
15690;DHT22;7945;48.816;11.506;2022-09-09T11:04:59;22.40;96.60
15690;DHT22;7945;48.816;11.506;2022-09-09T11:07:34;22.40;96.20
15690;DHT22;7945;48.816;11.506;2022-09-09T11:10:07;22.50;96.30
15690;DHT22;7945;48.816;11.506;2022-09-09T11:12:39;22.50;95.90
15690;DHT22;7945;48.816;11.506;2022-09-09T11:15:16;22.50;95.50
15690;DHT22;7945;48.816;11.506;2022-09-09T11:17:47;22.50;95.60
15690;DHT22;7945;48.816;11.506;2022-09-09T11:20:16;22.50;95.30
15690;DHT22;7945;48.816;11.506;2022-09-09T11:22:48;22.50;95.40
15690;DHT22;7945;48.816;11.506;2022-09-09T11:25:20;22.60;95.90
15690;DHT22;7945;48.816;11.506;2022-09-09T11:27:59;22.60;96.10
15690;DHT22;7945;48.816;11.506;2022-09-09T11:30:34;22.60;95.80
15690;DHT22;7945;48.816;11.506;2022-09-09T11:33:38;22.50;95.80
15690;DHT22;7945;48.816;11.506;2022-09-09T11:37:01;22.40;95.80
15690;DHT22;7945;48.816;11.506;2022-09-09T11:39:44;22.30;96.20
15690;DHT22;7945;48.816;11.506;2022-09-09T11:42:18;22.30;96.40
15690;DHT22;7945;48.816;11.506;2022-09-09T11:44:45;22.30;96.30
15690;DHT22;7945;48.816;11.506;2022-09-09T11:47:20;22.30;96.10
15690;DHT22;7945;48.816;11.506;2022-09-09T11:49:48;22.40;96.50
15690;DHT22;7945;48.816;11.506;2022-09-09T11:52:21;22.60;96.40
15690;DHT22;7945;48.816;11.506;2022-09-09T11:54:50;22.60;96.50
15690;DHT22;7945;48.816;11.506;2022-09-09T11:57:24;22.80;96.40
15690;DHT22;7945;48.816;11.506;2022-09-09T11:59:52;22.90;95.70
15690;DHT22;7945;48.816;11.506;2022-09-09T12:02:24;22.80;96.00
15690;DHT22;7945;48.816;11.506;2022-09-09T12:04:57;22.70;96.10
15690;DHT22;7945;48.816;11.506;2022-09-09T12:07:31;22.50;96.60
15690;DHT22;7945;48.816;11.506;2022-09-09T12:10:03;22.50;96.70
15690;DHT22;7945;48.816;11.506;2022-09-09T12:12:33;22.40;96.40
15690;DHT22;7945;48.816;11.506;2022-09-09T12:15:17;22.40;96.50
15690;DHT22;7945;48.816;11.506;2022-09-09T12:17:48;22.30;96.50
15690;DHT22;7945;48.816;11.506;2022-09-09T12:20:18;22.30;96.80
15690;DHT22;7945;48.816;11.506;2022-09-09T12:23:19;22.30;96.60
15690;DHT22;7945;48.816;11.506;2022-09-09T12:26:12;22.30;96.50
15690;DHT22;7945;48.816;11.506;2022-09-09T12:28:56;22.30;96.60
15690;DHT22;7945;48.816;11.506;2022-09-09T12:31:28;22.20;96.60
15690;DHT22;7945;48.816;11.506;2022-09-09T12:34:11;22.40;96.70
15690;DHT22;7945;48.816;11.506;2022-09-09T12:36:41;22.60;96.40
15690;DHT22;7945;48.816;11.506;2022-09-09T12:39:16;22.70;95.80
15690;DHT22;7945;48.816;11.506;2022-09-09T12:41:52;22.80;96.00
15690;DHT22;7945;48.816;11.506;2022-09-09T12:44:23;22.80;96.20
15690;DHT22;7945;48.816;11.506;2022-09-09T12:46:51;22.70;96.20
15690;DHT22;7945;48.816;11.506;2022-09-09T12:49:28;22.80;96.40
15690;DHT22;7945;48.816;11.506;2022-09-09T12:51:56;22.70;95.90
15690;DHT22;7945;48.816;11.506;2022-09-09T12:54:24;22.70;96.20
15690;DHT22;7945;48.816;11.506;2022-09-09T12:56:52;22.70;96.30
15690;DHT22;7945;48.816;11.506;2022-09-09T12:59:23;22.70;96.40
15690;DHT22;7945;48.816;11.506;2022-09-09T13:01:56;22.80;96.10
15690;DHT22;7945;48.816;11.506;2022-09-09T13:04:23;22.80;95.80
15690;DHT22;7945;48.816;11.506;2022-09-09T13:06:49;22.80;95.60
15690;DHT22;7945;48.816;11.506;2022-09-09T13:09:17;22.90;95.40
15690;DHT22;7945;48.816;11.506;2022-09-09T13:11:48;22.90;95.60
15690;DHT22;7945;48.816;11.506;2022-09-09T13:14:19;23.00;95.30
15690;DHT22;7945;48.816;11.506;2022-09-09T13:16:56;23.10;95.20
15690;DHT22;7945;48.816;11.506;2022-09-09T13:19:24;23.20;95.00
15690;DHT22;7945;48.816;11.506;2022-09-09T13:21:53;23.20;95.20
15690;DHT22;7945;48.816;11.506;2022-09-09T13:24:29;23.20;94.70
15690;DHT22;7945;48.816;11.506;2022-09-09T13:26:57;23.20;94.50
15690;DHT22;7945;48.816;11.506;2022-09-09T13:29:25;23.20;94.80
15690;DHT22;7945;48.816;11.506;2022-09-09T13:31:53;23.10;94.70
15690;DHT22;7945;48.816;11.506;2022-09-09T13:34:27;22.90;95.10
15690;DHT22;7945;48.816;11.506;2022-09-09T13:36:58;22.80;94.90
15690;DHT22;7945;48.816;11.506;2022-09-09T13:39:27;22.60;95.10
15690;DHT22;7945;48.816;11.506;2022-09-09T13:41:54;22.50;95.30
15690;DHT22;7945;48.816;11.506;2022-09-09T13:44:23;22.60;95.30
15690;DHT22;7945;48.816;11.506;2022-09-09T13:47:02;22.70;95.00
15690;DHT22;7945;48.816;11.506;2022-09-09T13:49:31;22.80;95.00
15690;DHT22;7945;48.816;11.506;2022-09-09T13:52:09;22.80;94.90
15690;DHT22;7945;48.816;11.506;2022-09-09T13:54:37;22.90;95.00
15690;DHT22;7945;48.816;11.506;2022-09-09T13:57:04;22.90;94.40
15690;DHT22;7945;48.816;11.506;2022-09-09T13:59:31;23.00;94.70
15690;DHT22;7945;48.816;11.506;2022-09-09T14:01:58;23.00;94.40
15690;DHT22;7945;48.816;11.506;2022-09-09T14:04:28;23.10;94.80
15690;DHT22;7945;48.816;11.506;2022-09-09T14:06:56;23.10;94.50
15690;DHT22;7945;48.816;11.506;2022-09-09T14:09:23;23.20;94.40
15690;DHT22;7945;48.816;11.506;2022-09-09T14:11:50;23.20;93.80
15690;DHT22;7945;48.816;11.506;2022-09-09T14:14:17;23.20;94.00
15690;DHT22;7945;48.816;11.506;2022-09-09T14:16:44;23.10;93.10
15690;DHT22;7945;48.816;11.506;2022-09-09T14:19:10;23.00;93.50
15690;DHT22;7945;48.816;11.506;2022-09-09T14:21:39;22.80;94.20
15690;DHT22;7945;48.816;11.506;2022-09-09T14:24:05;22.70;94.90
15690;DHT22;7945;48.816;11.506;2022-09-09T14:26:32;22.60;94.60
15690;DHT22;7945;48.816;11.506;2022-09-09T14:28:59;22.60;94.60
15690;DHT22;7945;48.816;11.506;2022-09-09T14:31:27;22.60;94.70
15690;DHT22;7945;48.816;11.506;2022-09-09T14:33:53;22.70;94.10
15690;DHT22;7945;48.816;11.506;2022-09-09T14:36:20;22.70;93.90
15690;DHT22;7945;48.816;11.506;2022-09-09T14:38:49;22.70;94.00
15690;DHT22;7945;48.816;11.506;2022-09-09T14:41:19;22.60;94.00
15690;DHT22;7945;48.816;11.506;2022-09-09T14:43:48;22.50;94.00
15690;DHT22;7945;48.816;11.506;2022-09-09T14:46:16;22.40;94.40
15690;DHT22;7945;48.816;11.506;2022-09-09T14:48:44;22.30;94.70
15690;DHT22;7945;48.816;11.506;2022-09-09T14:51:12;22.20;95.00
15690;DHT22;7945;48.816;11.506;2022-09-09T14:53:39;22.10;95.00
15690;DHT22;7945;48.816;11.506;2022-09-09T14:56:09;22.10;95.00
15690;DHT22;7945;48.816;11.506;2022-09-09T14:58:37;22.00;95.10
15690;DHT22;7945;48.816;11.506;2022-09-09T15:01:05;22.00;95.40
15690;DHT22;7945;48.816;11.506;2022-09-09T15:03:32;21.90;95.40
15690;DHT22;7945;48.816;11.506;2022-09-09T15:06:05;21.90;95.70
15690;DHT22;7945;48.816;11.506;2022-09-09T15:08:31;21.80;95.60
15690;DHT22;7945;48.816;11.506;2022-09-09T15:10:59;21.70;95.70
15690;DHT22;7945;48.816;11.506;2022-09-09T15:13:28;21.70;95.80
15690;DHT22;7945;48.816;11.506;2022-09-09T15:15:55;21.70;95.60
15690;DHT22;7945;48.816;11.506;2022-09-09T15:18:23;21.70;95.90
15690;DHT22;7945;48.816;11.506;2022-09-09T15:20:51;21.70;95.90
15690;DHT22;7945;48.816;11.506;2022-09-09T15:23:18;21.70;95.90
15690;DHT22;7945;48.816;11.506;2022-09-09T15:25:52;21.70;96.10
15690;DHT22;7945;48.816;11.506;2022-09-09T15:28:20;21.80;95.60
15690;DHT22;7945;48.816;11.506;2022-09-09T15:30:50;21.80;95.70
15690;DHT22;7945;48.816;11.506;2022-09-09T15:33:17;21.80;95.50
15690;DHT22;7945;48.816;11.506;2022-09-09T15:35:44;21.80;95.60
15690;DHT22;7945;48.816;11.506;2022-09-09T15:38:11;21.80;95.60
15690;DHT22;7945;48.816;11.506;2022-09-09T15:40:39;21.80;95.70
15690;DHT22;7945;48.816;11.506;2022-09-09T15:43:06;21.80;95.70
15690;DHT22;7945;48.816;11.506;2022-09-09T15:45:35;21.80;96.10
15690;DHT22;7945;48.816;11.506;2022-09-09T15:48:04;21.90;96.40
15690;DHT22;7945;48.816;11.506;2022-09-09T15:50:31;21.90;96.10
15690;DHT22;7945;48.816;11.506;2022-09-09T15:52:58;21.90;96.20
15690;DHT22;7945;48.816;11.506;2022-09-09T15:55:25;22.00;96.00
15690;DHT22;7945;48.816;11.506;2022-09-09T15:57:52;22.00;95.80
15690;DHT22;7945;48.816;11.506;2022-09-09T16:00:20;22.00;96.00